Time;durP1;ratioP1;P1;durP2;ratioP2;P2;SDS_P1;SDS_P2;PMS_P1;PMS_P2;Temp;Humidity;BMP_temperature;BMP_pressure;BME280_temperature;BME280_humidity;BME280_pressure;Samples;Min_cycle;Max_cycle;Signal;HPM_P1;HPM_P2
2022/06/18 00:00:59;;;;;;;0.50;0.50;;;26.40;75.70;;;;;;5067165;28;20319;-57
2022/06/18 00:03:27;;;;;;;0.60;0.60;;;26.50;76.00;;;;;;5052257;28;20037;-53
2022/06/18 00:05:57;;;;;;;1.30;1.02;;;26.60;76.00;;;;;;5071177;28;20570;-54
2022/06/18 00:08:29;;;;;;;0.47;0.47;;;26.60;75.80;;;;;;5057637;28;20060;-55
2022/06/18 00:13:49;;;;;;;0.85;0.85;;;26.30;75.60;;;;;;5062766;28;20491;-55
2022/06/18 00:16:20;;;;;;;1.15;0.98;;;26.20;76.00;;;;;;5056914;28;20057;-53
2022/06/18 00:18:48;;;;;;;2.63;1.25;;;26.20;76.30;;;;;;5039458;28;20049;-52
2022/06/18 00:21:26;;;;;;;1.38;1.02;;;26.20;76.30;;;;;;5065929;28;20057;-52
2022/06/18 00:23:53;;;;;;;;;;;26.20;76.30;;;;;;5064042;28;20052;-57
2022/06/18 00:26:20;;;;;;;1.00;0.77;;;26.20;76.00;;;;;;5064441;28;19932;-55
2022/06/18 00:28:48;;;;;;;0.85;0.82;;;26.20;76.10;;;;;;5060681;28;20060;-54
2022/06/18 00:31:16;;;;;;;0.90;0.88;;;26.20;76.10;;;;;;5072054;28;20057;-52
2022/06/18 00:33:43;;;;;;;1.58;1.30;;;26.30;76.30;;;;;;5052392;28;20119;-53
2022/06/18 00:36:17;;;;;;;5.53;2.17;;;26.30;76.20;;;;;;5049810;28;20048;-51
2022/06/18 00:38:47;;;;;;;0.75;0.75;;;26.30;76.00;;;;;;5057029;28;20189;-54
2022/06/18 00:41:20;;;;;;;0.50;0.50;;;26.30;76.20;;;;;;5066765;28;20052;-57
2022/06/18 00:43:58;;;;;;;0.40;0.40;;;26.30;76.20;;;;;;5051934;28;20056;-53
2022/06/18 00:46:47;;;;;;;1.98;1.02;;;26.30;76.30;;;;;;5065744;28;20063;-56
2022/06/18 00:49:20;;;;;;;2.33;1.27;;;26.30;76.20;;;;;;5049681;28;20594;-54
2022/06/18 00:52:00;;;;;;;2.08;1.17;;;26.40;76.20;;;;;;5033969;28;20321;-52
2022/06/18 00:54:35;;;;;;;0.57;0.57;;;26.30;76.10;;;;;;5055620;28;20044;-53
2022/06/18 00:57:31;;;;;;;0.47;0.47;;;26.40;76.10;;;;;;5058235;28;20053;-57
2022/06/18 01:00:09;;;;;;;1.90;1.02;;;26.40;76.30;;;;;;5028582;28;20147;-55
2022/06/18 01:02:41;;;;;;;2.10;0.90;;;26.40;76.10;;;;;;5062526;28;20048;-57
2022/06/18 01:05:23;;;;;;;1.17;1.10;;;26.50;76.10;;;;;;5067853;28;20523;-53
2022/06/18 01:07:56;;;;;;;1.10;0.93;;;26.50;75.90;;;;;;5056821;28;20044;-56
2022/06/18 01:10:32;;;;;;;0.90;0.90;;;26.60;76.10;;;;;;5055531;28;20522;-52
2022/06/18 01:13:03;;;;;;;0.75;0.75;;;26.60;76.00;;;;;;5053834;28;20486;-54
2022/06/18 01:15:36;;;;;;;1.17;0.93;;;26.60;76.00;;;;;;5049310;28;20053;-55
2022/06/18 01:18:05;;;;;;;2.13;1.13;;;26.50;75.80;;;;;;5052315;28;20496;-57
2022/06/18 01:20:41;;;;;;;0.40;0.40;;;26.50;75.90;;;;;;5041424;28;20052;-53
2022/06/18 01:23:33;;;;;;;0.60;0.60;;;26.30;76.00;;;;;;5066166;28;20048;-57
2022/06/18 01:26:03;;;;;;;0.35;0.35;;;26.20;76.10;;;;;;5058285;28;20048;-53
2022/06/18 01:28:30;;;;;;;0.88;0.75;;;26.20;76.30;;;;;;5047169;28;20049;-56
2022/06/18 01:30:57;;;;;;;0.50;0.50;;;26.10;76.40;;;;;;5065618;28;20077;-57
2022/06/18 01:33:25;;;;;;;2.67;1.17;;;26.20;76.50;;;;;;5057048;28;20377;-57
2022/06/18 01:35:54;;;;;;;1.48;1.00;;;26.30;76.60;;;;;;5060220;28;20044;-56
2022/06/18 01:38:24;;;;;;;0.40;0.40;;;26.30;76.40;;;;;;5046977;28;20049;-53
2022/06/18 01:44:06;;;;;;;1.05;0.85;;;26.20;76.40;;;;;;5049642;28;20492;-56
2022/06/18 01:46:36;;;;;;;0.52;0.52;;;26.20;76.40;;;;;;5062473;28;20044;-56
2022/06/18 01:49:10;;;;;;;0.82;0.80;;;26.20;76.30;;;;;;5064294;28;20097;-55
2022/06/18 01:51:42;;;;;;;0.35;0.35;;;26.30;76.60;;;;;;5053232;28;20041;-55
2022/06/18 01:54:30;;;;;;;5.07;1.80;;;26.40;76.50;;;;;;5047327;28;20057;-56
2022/06/18 01:57:05;;;;;;;2.00;0.98;;;26.40;76.40;;;;;;5057612;28;20048;-53
2022/06/18 01:59:37;;;;;;;1.02;0.55;;;26.50;76.30;;;;;;5065918;28;20049;-56
2022/06/18 02:02:07;;;;;;;0.47;0.47;;;26.50;76.20;;;;;;5065258;28;20060;-55
2022/06/18 02:04:34;;;;;;;0.63;0.63;;;26.30;76.10;;;;;;5045872;28;20055;-53
2022/06/18 02:07:04;;;;;;;;;;;26.10;76.50;;;;;;5048530;28;20044;-56
2022/06/18 02:09:44;;;;;;;0.30;0.30;;;26.00;76.80;;;;;;5048598;28;20367;-53
2022/06/18 02:12:16;;;;;;;0.40;0.40;;;25.90;77.10;;;;;;5044171;28;20055;-56
2022/06/18 02:14:48;;;;;;;0.50;0.50;;;25.90;77.00;;;;;;5064016;28;20068;-52
2022/06/18 02:17:20;;;;;;;0.20;0.20;;;26.00;77.00;;;;;;5054526;28;20061;-56
2022/06/18 02:20:08;;;;;;;1.00;0.63;;;26.00;77.00;;;;;;5059281;28;20048;-54
2022/06/18 02:22:44;;;;;;;0.40;0.40;;;25.90;77.10;;;;;;5035661;28;20477;-55
2022/06/18 02:25:13;;;;;;;1.60;1.13;;;25.90;77.20;;;;;;5067755;28;20048;-55
2022/06/18 02:27:41;;;;;;;0.43;0.43;;;25.90;77.30;;;;;;5054046;28;20142;-53
2022/06/18 02:30:21;;;;;;;1.95;1.30;;;25.80;77.10;;;;;;5071033;28;20052;-58
2022/06/18 02:33:03;;;;;;;0.40;0.40;;;25.80;77.30;;;;;;5055178;28;20139;-53
2022/06/18 02:35:32;;;;;;;0.73;0.73;;;25.80;77.30;;;;;;5060114;28;20053;-58
2022/06/18 02:38:00;;;;;;;0.43;0.43;;;25.80;77.50;;;;;;5050213;28;20041;-54
2022/06/18 02:40:30;;;;;;;0.43;0.43;;;25.80;77.60;;;;;;5057240;28;20059;-56
2022/06/18 02:43:00;;;;;;;0.40;0.40;;;25.80;77.60;;;;;;5054464;28;20056;-53
2022/06/18 02:45:31;;;;;;;0.82;0.80;;;25.80;77.60;;;;;;5054789;28;20061;-52
2022/06/18 02:48:00;;;;;;;1.13;1.02;;;25.80;77.80;;;;;;5047816;28;20255;-55
2022/06/18 02:50:35;;;;;;;0.40;0.40;;;25.80;77.80;;;;;;5064173;28;20053;-52
2022/06/18 02:53:03;;;;;;;1.45;0.93;;;25.80;77.80;;;;;;5046297;28;20055;-60
2022/06/18 02:55:35;;;;;;;0.52;0.52;;;25.70;77.90;;;;;;5082451;28;20056;-55
2022/06/18 02:58:13;;;;;;;0.73;0.73;;;25.70;78.10;;;;;;5051740;28;20048;-56
2022/06/18 03:00:45;;;;;;;0.40;0.40;;;25.70;78.20;;;;;;5076876;28;20079;-55
2022/06/18 03:03:15;;;;;;;0.35;0.35;;;25.60;78.30;;;;;;5060261;28;20076;-55
2022/06/18 03:05:43;;;;;;;0.50;0.50;;;25.50;78.50;;;;;;5037003;28;20045;-55
2022/06/18 03:08:11;;;;;;;0.60;0.60;;;25.40;78.50;;;;;;5047723;28;20063;-56
2022/06/18 03:13:25;;;;;;;0.47;0.47;;;25.50;78.80;;;;;;5053106;28;20076;-53
2022/06/18 03:15:55;;;;;;;1.88;0.93;;;25.60;78.80;;;;;;5066700;28;20057;-56
2022/06/18 03:18:27;;;;;;;0.38;0.38;;;25.60;78.80;;;;;;5051020;28;20059;-53
2022/06/18 03:21:17;;;;;;;9.23;1.38;;;25.60;78.60;;;;;;5052558;28;20068;-56
2022/06/18 03:23:45;;;;;;;1.13;0.90;;;25.60;78.80;;;;;;5048030;28;20064;-53
2022/06/18 03:26:16;;;;;;;0.50;0.50;;;25.60;79.00;;;;;;5055556;28;20064;-56
2022/06/18 03:28:49;;;;;;;0.70;0.70;;;25.50;79.00;;;;;;5051334;28;20075;-53
2022/06/18 03:31:16;;;;;;;;;;;25.50;79.00;;;;;;5055939;28;20064;-54
2022/06/18 03:33:46;;;;;;;0.50;0.50;;;25.50;79.30;;;;;;5051327;28;19927;-56
2022/06/18 03:36:20;;;;;;;0.50;0.50;;;25.60;79.10;;;;;;5054269;28;20360;-57
2022/06/18 03:38:49;;;;;;;0.63;0.63;;;25.50;79.10;;;;;;5024556;28;20049;-56
2022/06/18 03:41:19;;;;;;;0.40;0.40;;;25.50;79.20;;;;;;5058224;28;20052;-57
2022/06/18 03:43:47;;;;;;;1.67;1.13;;;25.50;79.20;;;;;;5028354;28;20056;-53
2022/06/18 03:46:17;;;;;;;0.55;0.55;;;25.40;79.10;;;;;;5061572;28;20052;-53
2022/06/18 03:48:54;;;;;;;0.40;0.40;;;25.40;79.00;;;;;;5029712;28;20443;-52
2022/06/18 03:51:27;;;;;;;0.60;0.60;;;25.40;79.00;;;;;;5063726;28;20059;-54
2022/06/18 03:53:55;;;;;;;0.95;0.90;;;25.40;79.10;;;;;;5057722;28;20060;-53
2022/06/18 03:56:26;;;;;;;0.30;0.30;;;25.40;78.90;;;;;;5040435;28;20068;-55
2022/06/18 03:58:54;;;;;;;0.47;0.47;;;25.40;78.80;;;;;;5043774;28;20044;-54
2022/06/18 04:01:29;;;;;;;0.55;0.55;;;25.40;79.00;;;;;;5044423;28;20095;-55
2022/06/18 04:03:59;;;;;;;;;;;25.40;78.80;;;;;;5045144;28;20053;-54
2022/06/18 04:06:35;;;;;;;0.50;0.50;;;25.40;78.60;;;;;;5031998;28;20289;-56
2022/06/18 04:09:16;;;;;;;0.40;0.40;;;25.40;78.60;;;;;;5044913;28;20057;-52
2022/06/18 04:11:43;;;;;;;0.57;0.57;;;25.40;78.60;;;;;;5036174;28;20396;-52
2022/06/18 04:14:10;;;;;;;0.30;0.30;;;25.40;78.40;;;;;;5044467;28;20512;-52
2022/06/18 04:17:04;;;;;;;0.38;0.38;;;25.40;78.40;;;;;;5028029;28;20171;-52
2022/06/18 04:19:33;;;;;;;0.50;0.50;;;25.40;78.40;;;;;;5057690;28;20075;-50
2022/06/18 04:22:09;;;;;;;0.40;0.40;;;25.40;78.40;;;;;;5045704;28;20342;-52
2022/06/18 04:24:49;;;;;;;0.30;0.30;;;25.40;78.30;;;;;;5033868;28;20053;-54
2022/06/18 04:27:16;;;;;;;0.30;0.30;;;25.50;78.90;;;;;;5030389;28;20046;-52
2022/06/18 04:29:44;;;;;;;0.68;0.68;;;25.40;78.30;;;;;;5051481;28;20064;-56
2022/06/18 04:32:13;;;;;;;2.30;1.27;;;25.50;78.40;;;;;;5030006;28;20057;-56
2022/06/18 04:34:41;;;;;;;1.08;0.60;;;25.60;78.30;;;;;;5050244;28;20128;-54
2022/06/18 04:37:30;;;;;;;0.77;0.77;;;25.50;78.30;;;;;;5033503;28;20056;-53
2022/06/18 04:40:13;;;;;;;0.82;0.60;;;25.50;79.00;;;;;;5043085;28;20056;-52
2022/06/18 04:43:08;;;;;;;0.30;0.30;;;25.40;78.40;;;;;;5041055;28;20053;-54
2022/06/18 04:45:41;;;;;;;1.00;0.82;;;25.20;78.90;;;;;;5069900;28;20041;-54
2022/06/18 04:48:15;;;;;;;2.35;1.42;;;25.30;79.10;;;;;;5028195;28;20232;-55
2022/06/18 04:50:42;;;;;;;;;;;25.40;79.00;;;;;;5072296;28;20413;-54
2022/06/18 04:53:12;;;;;;;0.30;0.30;;;25.40;79.00;;;;;;5030826;28;19924;-55
2022/06/18 04:55:42;;;;;;;0.50;0.50;;;25.40;79.00;;;;;;5031970;28;20057;-54
2022/06/18 04:58:09;;;;;;;0.30;0.30;;;25.60;78.80;;;;;;5029111;28;20057;-57
2022/06/18 05:00:42;;;;;;;0.40;0.40;;;25.70;78.50;;;;;;5040009;28;20053;-57
2022/06/18 05:03:20;;;;;;;0.40;0.40;;;25.70;78.60;;;;;;5059796;28;20049;-57
2022/06/18 05:05:59;;;;;;;0.50;0.50;;;25.70;78.50;;;;;;5056007;28;20049;-57
2022/06/18 05:08:41;;;;;;;0.60;0.43;;;25.70;78.40;;;;;;5027930;28;20041;-55
2022/06/18 05:11:35;;;;;;;0.40;0.40;;;25.80;78.40;;;;;;5014620;28;20053;-58
2022/06/18 05:14:09;;;;;;;0.35;0.35;;;25.90;78.40;;;;;;5014345;28;20049;-55
2022/06/18 05:16:44;;;;;;;0.40;0.40;;;25.80;78.70;;;;;;5031413;28;20057;-53
2022/06/18 05:19:24;;;;;;;1.27;0.55;;;25.70;78.40;;;;;;5036222;28;20057;-52
2022/06/18 05:21:54;;;;;;;0.30;0.30;;;25.60;78.60;;;;;;5022755;28;20046;-53
2022/06/18 05:24:23;;;;;;;0.73;0.73;;;25.60;78.80;;;;;;5008522;28;20442;-56
2022/06/18 05:26:53;;;;;;;1.20;0.63;;;25.70;78.80;;;;;;5038209;28;20049;-57
2022/06/18 05:29:21;;;;;;;1.25;0.93;;;25.80;78.60;;;;;;5044312;28;20532;-52
2022/06/18 05:31:49;;;;;;;0.32;0.30;;;25.70;78.40;;;;;;5045747;28;20405;-57
2022/06/18 05:34:17;;;;;;;0.45;0.45;;;25.80;78.40;;;;;;5027677;28;20061;-53
2022/06/18 05:36:47;;;;;;;2.45;1.10;;;25.70;78.50;;;;;;5018039;28;20528;-54
2022/06/18 05:39:18;;;;;;;0.93;0.88;;;25.80;78.40;;;;;;5018980;28;20050;-53
2022/06/18 05:41:46;;;;;;;0.30;0.30;;;25.90;78.20;;;;;;5039718;28;20056;-58
2022/06/18 05:44:13;;;;;;;3.95;0.68;;;26.00;78.30;;;;;;5013464;28;20152;-56
2022/06/18 05:46:41;;;;;;;1.75;0.60;;;25.90;77.90;;;;;;5042460;28;20046;-56
2022/06/18 05:49:09;;;;;;;0.30;0.30;;;25.80;78.10;;;;;;5026152;28;20490;-53
2022/06/18 05:51:36;;;;;;;1.85;0.77;;;25.90;78.10;;;;;;5017120;28;20046;-52
2022/06/18 05:54:04;;;;;;;0.43;0.43;;;26.00;78.20;;;;;;5023851;28;20042;-54
2022/06/18 05:56:44;;;;;;;0.50;0.50;;;25.90;78.10;;;;;;5030171;28;20102;-52
2022/06/18 05:59:41;;;;;;;0.65;0.63;;;25.90;78.20;;;;;;5008481;28;20401;-54
2022/06/18 06:02:12;;;;;;;0.55;0.55;;;26.00;78.20;;;;;;5008133;28;20092;-53
2022/06/18 06:04:42;;;;;;;0.40;0.40;;;25.90;78.50;;;;;;5030513;28;20061;-51
2022/06/18 06:07:20;;;;;;;1.45;0.95;;;25.90;78.80;;;;;;5030798;28;20056;-53
2022/06/18 06:12:39;;;;;;;0.30;0.30;;;25.90;79.00;;;;;;5049226;28;20558;-54
2022/06/18 06:15:07;;;;;;;;;;;26.00;79.10;;;;;;5053221;28;20041;-52
2022/06/18 06:17:34;;;;;;;;;;;26.00;79.10;;;;;;5069362;28;19924;-55
2022/06/18 06:20:17;;;;;;;1.08;0.98;;;26.00;79.10;;;;;;5056980;28;19921;-57
2022/06/18 06:22:45;;;;;;;3.40;1.63;;;25.90;79.40;;;;;;5068493;28;20512;-55
2022/06/18 06:25:12;;;;;;;0.95;0.90;;;25.90;79.70;;;;;;5057733;28;20156;-51
2022/06/18 06:27:39;;;;;;;0.60;0.60;;;25.90;79.70;;;;;;5056938;28;20052;-56
2022/06/18 06:30:13;;;;;;;2.20;0.95;;;25.80;79.70;;;;;;5055504;28;20048;-56
2022/06/18 06:32:41;;;;;;;0.38;0.38;;;25.90;79.80;;;;;;5065155;28;20049;-54
2022/06/18 06:35:09;;;;;;;4.65;1.20;;;25.80;79.80;;;;;;5055441;28;20048;-56
2022/06/18 06:37:36;;;;;;;0.55;0.55;;;25.90;79.90;;;;;;5048653;28;20067;-56
2022/06/18 06:40:05;;;;;;;1.17;0.82;;;25.90;79.80;;;;;;5054829;28;20056;-55
2022/06/18 06:42:45;;;;;;;0.60;0.60;;;25.70;79.90;;;;;;5056731;28;20393;-54
2022/06/18 06:45:18;;;;;;;0.40;0.40;;;25.70;80.20;;;;;;5053880;28;20911;-53
2022/06/18 06:47:46;;;;;;;0.40;0.40;;;25.80;80.20;;;;;;5053246;28;20155;-51
2022/06/18 06:50:15;;;;;;;0.45;0.45;;;25.90;80.60;;;;;;5048372;28;20049;-54
2022/06/18 06:52:44;;;;;;;0.40;0.40;;;26.00;79.90;;;;;;5047255;28;20060;-53
2022/06/18 06:58:07;;;;;;;1.55;1.17;;;25.90;79.70;;;;;;5048434;28;20056;-55
2022/06/18 07:00:35;;;;;;;;;;;25.90;80.00;;;;;;5051663;28;20106;-54
2022/06/18 07:03:02;;;;;;;0.40;0.40;;;26.00;79.90;;;;;;5061300;28;20379;-53
2022/06/18 07:05:30;;;;;;;0.68;0.60;;;26.00;80.00;;;;;;5062439;28;20435;-55
2022/06/18 07:07:57;;;;;;;0.95;0.88;;;25.90;80.00;;;;;;5050091;28;20476;-52
2022/06/18 07:10:25;;;;;;;1.40;0.82;;;25.90;80.10;;;;;;5063028;28;20057;-55
2022/06/18 07:12:52;;;;;;;1.75;1.63;;;25.90;80.20;;;;;;5056202;28;20798;-57
2022/06/18 07:15:20;;;;;;;1.38;0.93;;;26.00;80.10;;;;;;5065599;28;20496;-52
2022/06/18 07:17:47;;;;;;;;;;;26.00;80.00;;;;;;5053020;28;20059;-56
2022/06/18 07:20:17;;;;;;;0.68;0.68;;;26.00;80.10;;;;;;5058181;28;19921;-57
2022/06/18 07:22:45;;;;;;;4.30;1.80;;;26.00;80.30;;;;;;5049043;28;20396;-56
2022/06/18 07:25:14;;;;;;;0.57;0.57;;;26.00;80.10;;;;;;5053882;28;20464;-56
2022/06/18 07:27:43;;;;;;;0.45;0.45;;;26.10;80.20;;;;;;5028722;28;20368;-55
2022/06/18 07:30:11;;;;;;;0.30;0.30;;;26.20;80.20;;;;;;5054582;28;20049;-54
2022/06/18 07:32:46;;;;;;;0.82;0.82;;;26.20;79.90;;;;;;5065341;28;20048;-52
2022/06/18 07:35:24;;;;;;;0.20;0.20;;;26.30;80.00;;;;;;5054015;28;20415;-52
2022/06/18 07:37:54;;;;;;;0.60;0.60;;;26.30;80.20;;;;;;5046331;28;20519;-52
2022/06/18 07:40:21;;;;;;;1.08;0.85;;;26.30;80.20;;;;;;5065851;28;20060;-53
2022/06/18 07:42:51;;;;;;;0.30;0.30;;;26.30;80.30;;;;;;5048002;28;20361;-57
2022/06/18 07:45:21;;;;;;;0.68;0.68;;;26.30;80.50;;;;;;5060938;28;20056;-56
2022/06/18 07:47:49;;;;;;;0.63;0.63;;;26.40;80.50;;;;;;5064707;28;20472;-54
2022/06/18 07:50:18;;;;;;;2.10;0.95;;;26.40;80.40;;;;;;5060024;28;20056;-53
2022/06/18 07:52:46;;;;;;;0.63;0.40;;;26.40;80.30;;;;;;5062326;28;20067;-54
2022/06/18 07:55:15;;;;;;;;;;;26.40;80.60;;;;;;5058561;28;20052;-55
2022/06/18 07:57:46;;;;;;;0.35;0.35;;;26.40;80.60;;;;;;5061150;28;19936;-49
2022/06/18 08:00:17;;;;;;;1.58;1.08;;;26.40;80.40;;;;;;5058701;28;20442;-52
2022/06/18 08:02:46;;;;;;;0.77;0.73;;;26.50;80.70;;;;;;5050690;28;20037;-54
2022/06/18 08:05:20;;;;;;;0.70;0.52;;;26.50;80.60;;;;;;5050750;28;20049;-52
2022/06/18 08:07:48;;;;;;;0.90;0.80;;;26.50;80.50;;;;;;5050207;28;20140;-55
2022/06/18 08:10:37;;;;;;;0.73;0.73;;;26.50;80.50;;;;;;5064157;28;20044;-57
2022/06/18 08:13:06;;;;;;;0.40;0.40;;;26.50;80.50;;;;;;5059184;28;20084;-57
2022/06/18 08:15:39;;;;;;;1.25;0.60;;;26.60;80.50;;;;;;5056819;28;20444;-58
2022/06/18 08:18:07;;;;;;;0.47;0.47;;;26.60;80.60;;;;;;5042940;28;20052;-53
2022/06/18 08:20:53;;;;;;;1.15;1.05;;;26.60;80.60;;;;;;5063178;28;20052;-55
2022/06/18 08:23:21;;;;;;;0.75;0.65;;;26.60;81.10;;;;;;5049208;28;20071;-53
2022/06/18 08:25:48;;;;;;;4.00;2.38;;;26.60;80.50;;;;;;5061580;28;20055;-53
2022/06/18 08:28:16;;;;;;;3.53;0.68;;;26.60;80.50;;;;;;5053047;28;20049;-55
2022/06/18 08:30:44;;;;;;;1.45;1.05;;;26.60;81.20;;;;;;5061210;28;20087;-54
2022/06/18 08:33:11;;;;;;;1.92;1.17;;;26.60;80.70;;;;;;5067434;28;20053;-53
2022/06/18 08:35:39;;;;;;;0.65;0.40;;;26.70;80.60;;;;;;5057991;28;20044;-52
2022/06/18 08:38:08;;;;;;;1.25;1.08;;;26.70;80.60;;;;;;5049435;28;20431;-52
2022/06/18 08:40:47;;;;;;;0.77;0.77;;;26.70;80.50;;;;;;5064431;28;20052;-55
2022/06/18 08:43:27;;;;;;;0.80;0.73;;;26.70;80.50;;;;;;5048745;28;20057;-56
2022/06/18 08:46:09;;;;;;;12.13;2.35;;;26.70;80.40;;;;;;5057857;28;20049;-49
2022/06/18 08:49:05;;;;;;;0.65;0.65;;;26.70;80.40;;;;;;5054488;28;20424;-52
2022/06/18 08:51:51;;;;;;;3.42;1.95;;;26.70;80.40;;;;;;5068187;28;20055;-52
2022/06/18 08:54:27;;;;;;;0.50;0.50;;;26.70;80.30;;;;;;5048479;28;20053;-54
2022/06/18 08:57:01;;;;;;;1.92;1.55;;;26.70;80.20;;;;;;5063248;28;20299;-53
2022/06/18 08:59:37;;;;;;;1.20;1.02;;;26.70;80.20;;;;;;5050937;28;20059;-52
2022/06/18 09:02:33;;;;;;;2.10;0.95;;;26.70;80.30;;;;;;5052508;28;20057;-53
2022/06/18 09:05:49;;;;;;;0.47;0.47;;;26.70;80.20;;;;;;5036894;28;20044;-59
2022/06/18 09:08:39;;;;;;;0.67;0.60;;;26.70;80.30;;;;;;5058646;28;20048;-54
2022/06/18 09:11:22;;;;;;;0.63;0.63;;;26.70;80.40;;;;;;5061978;28;20303;-51
2022/06/18 09:13:54;;;;;;;1.30;0.63;;;26.70;80.30;;;;;;5054163;28;20049;-52
2022/06/18 09:16:30;;;;;;;6.13;1.00;;;26.80;80.50;;;;;;5052052;28;20142;-54
2022/06/18 09:19:01;;;;;;;0.30;0.30;;;26.80;80.50;;;;;;5053733;28;20052;-56
2022/06/18 09:21:39;;;;;;;0.63;0.52;;;26.80;80.40;;;;;;5052328;28;20053;-53
2022/06/18 09:24:10;;;;;;;2.50;1.85;;;26.80;80.30;;;;;;5058589;28;20452;-54
2022/06/18 09:26:44;;;;;;;0.35;0.35;;;26.80;80.30;;;;;;5060671;28;20049;-50
2022/06/18 09:29:35;;;;;;;2.58;1.05;;;26.80;80.20;;;;;;5061155;28;20037;-50
2022/06/18 09:32:20;;;;;;;0.65;0.65;;;26.80;80.20;;;;;;5066555;28;20044;-56
2022/06/18 09:35:03;;;;;;;0.50;0.50;;;26.80;80.00;;;;;;5035020;28;20064;-52
2022/06/18 09:37:37;;;;;;;0.47;0.47;;;26.80;80.00;;;;;;5053849;28;20385;-53
2022/06/18 09:40:15;;;;;;;0.32;0.32;;;26.80;80.00;;;;;;5055287;28;20075;-55
2022/06/18 09:42:49;;;;;;;3.40;1.42;;;26.80;80.00;;;;;;5029754;28;20463;-50
2022/06/18 09:45:24;;;;;;;1.10;0.52;;;26.80;79.90;;;;;;5056830;28;20055;-58
2022/06/18 09:47:52;;;;;;;0.30;0.30;;;26.90;79.90;;;;;;5057235;28;20067;-52
2022/06/18 09:50:19;;;;;;;;;;;26.90;79.70;;;;;;5051765;28;20049;-54
2022/06/18 09:52:49;;;;;;;;;;;26.90;79.50;;;;;;5048328;28;19924;-55
2022/06/18 09:55:21;;;;;;;1.85;1.67;;;26.90;79.40;;;;;;5052615;28;19928;-56
2022/06/18 09:57:56;;;;;;;0.95;0.55;;;26.90;79.40;;;;;;5046114;28;20060;-55
2022/06/18 10:00:29;;;;;;;1.65;0.52;;;26.90;79.50;;;;;;5052626;28;20526;-55
2022/06/18 10:03:02;;;;;;;0.70;0.70;;;26.90;79.30;;;;;;5046694;28;20076;-53
2022/06/18 10:08:34;;;;;;;1.30;1.17;;;26.90;79.20;;;;;;5054400;28;20052;-56
2022/06/18 10:11:08;;;;;;;2.92;1.38;;;26.90;79.20;;;;;;5065103;28;20428;-55
2022/06/18 10:13:45;;;;;;;0.43;0.43;;;26.90;79.20;;;;;;5049431;28;20052;-55
2022/06/18 10:16:22;;;;;;;3.75;1.90;;;26.90;79.20;;;;;;5048272;28;20052;-56
2022/06/18 10:19:22;;;;;;;;;;;26.90;79.10;;;;;;5059639;28;20055;-55
2022/06/18 10:22:22;;;;;;;0.88;0.55;;;26.90;79.20;;;;;;5003275;28;19924;-58
2022/06/18 10:25:11;;;;;;;0.70;0.40;;;26.90;79.20;;;;;;5069497;28;20139;-52
2022/06/18 10:28:26;;;;;;;1.30;0.50;;;26.90;79.20;;;;;;5050909;28;20380;-56
2022/06/18 10:31:02;;;;;;;0.22;0.22;;;27.00;79.20;;;;;;4966598;28;20198;-53
2022/06/18 10:33:36;;;;;;;1.65;0.93;;;26.90;79.10;;;;;;4945992;29;20242;-56
2022/06/18 10:36:26;;;;;;;0.40;0.40;;;27.00;79.20;;;;;;4963208;28;20069;-55
2022/06/18 10:39:27;;;;;;;0.65;0.65;;;27.00;79.20;;;;;;4926654;28;20069;-54
2022/06/18 10:42:08;;;;;;;0.38;0.38;;;27.00;79.10;;;;;;4977407;28;20065;-57
2022/06/18 10:44:57;;;;;;;0.40;0.40;;;27.00;79.10;;;;;;4957885;28;20054;-55
2022/06/18 10:47:38;;;;;;;0.50;0.50;;;27.00;79.00;;;;;;4945597;28;20055;-54
2022/06/18 10:50:11;;;;;;;0.57;0.55;;;27.00;79.10;;;;;;4960542;28;20553;-56
2022/06/18 10:52:39;;;;;;;1.27;0.88;;;27.00;79.00;;;;;;4948172;28;20055;-56
2022/06/18 10:55:19;;;;;;;0.57;0.57;;;27.00;79.10;;;;;;4948935;28;20069;-57
2022/06/18 10:57:48;;;;;;;0.32;0.32;;;27.00;79.00;;;;;;4945677;28;20053;-54
2022/06/18 11:00:23;;;;;;;3.00;1.27;;;27.00;78.90;;;;;;4952690;28;20059;-55
2022/06/18 11:03:00;;;;;;;0.47;0.47;;;27.00;78.80;;;;;;5038852;28;20056;-56
2022/06/18 11:05:35;;;;;;;0.52;0.52;;;27.00;78.90;;;;;;5047188;28;20068;-56
2022/06/18 11:08:16;;;;;;;2.50;0.85;;;27.10;78.90;;;;;;5047548;28;20051;-53
2022/06/18 11:11:02;;;;;;;7.22;1.33;;;27.10;79.50;;;;;;5075933;28;20410;-54
2022/06/18 11:13:36;;;;;;;0.30;0.30;;;27.10;78.90;;;;;;5055095;28;20056;-55
2022/06/18 11:16:26;;;;;;;0.40;0.40;;;27.10;78.80;;;;;;5054992;28;20049;-55
2022/06/18 11:19:00;;;;;;;1.25;0.82;;;27.10;78.90;;;;;;5050971;28;20496;-52
2022/06/18 11:21:39;;;;;;;2.42;1.08;;;27.10;78.80;;;;;;5057345;28;20055;-53
2022/06/18 11:24:15;;;;;;;2.45;1.30;;;27.10;78.80;;;;;;5058978;28;20571;-53
2022/06/18 11:26:52;;;;;;;1.75;0.70;;;27.10;78.70;;;;;;5052444;28;20351;-56
2022/06/18 11:29:21;;;;;;;0.45;0.45;;;27.10;78.60;;;;;;5061071;28;20508;-54
2022/06/18 11:31:53;;;;;;;0.35;0.35;;;27.10;78.60;;;;;;5053309;28;20515;-54
2022/06/18 11:34:33;;;;;;;4.30;2.50;;;27.10;78.60;;;;;;5056931;28;20052;-51
2022/06/18 11:37:20;;;;;;;0.43;0.43;;;27.10;78.60;;;;;;5050772;28;20416;-59
2022/06/18 11:39:53;;;;;;;;;;;27.10;78.60;;;;;;5058817;28;20063;-54
2022/06/18 11:42:41;;;;;;;2.08;1.05;;;27.10;78.50;;;;;;5062190;28;19932;-51
2022/06/18 11:45:25;;;;;;;0.68;0.68;;;27.10;78.50;;;;;;5062266;28;20048;-53
2022/06/18 11:48:16;;;;;;;0.82;0.82;;;27.20;78.50;;;;;;5058165;28;20045;-56
2022/06/18 11:51:24;;;;;;;0.50;0.50;;;27.20;78.60;;;;;;5055672;28;20307;-57
2022/06/18 11:54:12;;;;;;;0.55;0.55;;;27.20;78.50;;;;;;5051483;28;20417;-51
2022/06/18 11:57:09;;;;;;;1.30;0.85;;;27.20;78.40;;;;;;5066884;28;20599;-58
2022/06/18 11:59:52;;;;;;;0.70;0.70;;;27.20;78.30;;;;;;5042446;28;20340;-56
2022/06/18 12:02:42;;;;;;;1.00;0.98;;;27.20;78.20;;;;;;5052833;28;20064;-57
2022/06/18 12:05:21;;;;;;;0.55;0.55;;;27.20;78.20;;;;;;5056377;28;20045;-54
2022/06/18 12:07:58;;;;;;;0.90;0.73;;;27.20;78.10;;;;;;5053687;28;20420;-56
2022/06/18 12:10:49;;;;;;;0.75;0.75;;;27.30;78.10;;;;;;5065609;28;20063;-58
2022/06/18 12:13:44;;;;;;;3.05;1.10;;;27.30;78.10;;;;;;5064370;28;20041;-58
2022/06/18 12:16:36;;;;;;;0.52;0.52;;;27.30;78.10;;;;;;5056816;28;20053;-53
2022/06/18 12:19:10;;;;;;;0.90;0.88;;;27.30;78.10;;;;;;5054885;28;20048;-57
2022/06/18 12:21:52;;;;;;;0.43;0.43;;;27.30;78.00;;;;;;5041728;28;20183;-55
2022/06/18 12:24:50;;;;;;;0.75;0.73;;;27.30;77.70;;;;;;5053684;28;20053;-53
2022/06/18 12:27:25;;;;;;;0.20;0.20;;;27.30;77.60;;;;;;5055852;28;20040;-56
2022/06/18 12:30:04;;;;;;;0.50;0.50;;;27.30;77.50;;;;;;5045992;28;20045;-54
2022/06/18 12:32:54;;;;;;;19.52;2.25;;;27.30;77.50;;;;;;5062308;28;20064;-52
2022/06/18 12:35:32;;;;;;;0.20;0.20;;;27.30;77.50;;;;;;5055956;28;20053;-55
2022/06/18 12:38:28;;;;;;;0.30;0.30;;;27.40;77.30;;;;;;5050909;28;20056;-54
2022/06/18 12:41:21;;;;;;;0.57;0.57;;;27.40;77.20;;;;;;5059073;28;20056;-55
2022/06/18 12:44:06;;;;;;;1.10;0.75;;;27.40;77.20;;;;;;5055422;28;20550;-53
2022/06/18 12:46:41;;;;;;;9.07;1.80;;;27.40;77.10;;;;;;5069870;28;20119;-56
2022/06/18 12:49:08;;;;;;;0.50;0.50;;;27.40;76.60;;;;;;5059843;28;20045;-51
2022/06/18 12:51:35;;;;;;;3.10;1.67;;;27.40;76.50;;;;;;5055844;28;20045;-56
2022/06/18 12:54:31;;;;;;;1.08;0.65;;;27.40;76.40;;;;;;5056740;28;20053;-54
2022/06/18 12:57:20;;;;;;;3.25;1.08;;;27.40;76.50;;;;;;5060488;28;20079;-55
2022/06/18 13:00:14;;;;;;;1.20;0.93;;;27.40;76.60;;;;;;5038313;28;20128;-56
2022/06/18 13:03:05;;;;;;;0.88;0.77;;;27.50;76.70;;;;;;5048443;28;20053;-56
2022/06/18 13:05:46;;;;;;;0.40;0.40;;;27.50;76.60;;;;;;5061880;28;20065;-56
2022/06/18 13:08:29;;;;;;;0.20;0.20;;;27.50;76.80;;;;;;5057809;28;20155;-57
2022/06/18 13:11:15;;;;;;;0.70;0.70;;;27.50;76.80;;;;;;5041248;28;20507;-57
2022/06/18 13:13:58;;;;;;;0.47;0.47;;;27.50;76.80;;;;;;5079638;28;20056;-54
2022/06/18 13:16:54;;;;;;;2.13;1.38;;;27.60;76.90;;;;;;5058736;28;20059;-54
2022/06/18 13:19:37;;;;;;;2.25;1.20;;;27.60;76.90;;;;;;5065896;28;20052;-56
2022/06/18 13:22:05;;;;;;;0.40;0.40;;;27.60;76.80;;;;;;5054937;28;20151;-55
2022/06/18 13:30:26;;;;;;;2.33;1.30;;;27.70;76.90;;;;;;5062079;28;20048;-54
2022/06/18 13:33:03;;;;;;;1.42;1.17;;;27.70;76.90;;;;;;5085955;28;20056;-53
2022/06/18 13:36:07;;;;;;;2.60;1.30;;;27.70;76.70;;;;;;5055933;28;20057;-55
2022/06/18 13:38:51;;;;;;;0.68;0.68;;;27.80;76.70;;;;;;5051137;28;20068;-55
2022/06/18 13:41:40;;;;;;;5.22;1.58;;;27.80;76.60;;;;;;5069723;28;20057;-52
2022/06/18 13:44:45;;;;;;;1.88;1.00;;;27.80;76.50;;;;;;5051406;28;20053;-54
2022/06/18 13:47:47;;;;;;;1.35;1.25;;;27.90;76.50;;;;;;5050371;28;20045;-54
2022/06/18 13:50:43;;;;;;;0.90;0.77;;;27.90;76.30;;;;;;4968976;28;20078;-53
2022/06/18 13:53:32;;;;;;;0.82;0.82;;;27.90;76.20;;;;;;5066164;28;20072;-52
2022/06/18 13:56:02;;;;;;;0.75;0.75;;;28.00;76.20;;;;;;5049101;28;20053;-50
2022/06/18 13:58:34;;;;;;;0.98;0.93;;;28.00;76.10;;;;;;5051896;28;20057;-52